AYWK/WWK METAR and TAF weather

Enter ICAO airport designator
Station Type Date Time Source
AYWK METAR 2017/12/22 03:00 UTC NOAA

AYWK 220300Z 31011KT 9999 FEW020 SCT300 31/25 Q1006


Station Type Date Time Source
AYWK Decoded METAR 2017/12/22 03:00 UTC NOAA

Wewak, Papua New Guinea (AYWK) 03-34S 143-38E
Dec 21, 2017 - 10:00 PM EST / 2017.12.22 0300 UTC
Wind: from the NW (310 degrees) at 13 MPH (11 KT):0
Visibility: greater than 7 mile(s):0
Sky conditions: partly cloudy
Temperature: 87 F (31 C)
Heat index: 97.5 F (36.4 C):1
Dew Point: 77 F (25 C)
Relative Humidity: 70%
Pressure (altimeter): 29.71 in. Hg (1006 hPa)
ob: AYWK 220300Z 31011KT 9999 FEW020 SCT300 31/25 Q1006
cycle: 3

Station Type Date Time Source
AYWK TAF 2015/08/19 08:15 UTC NOAA

TAF AYWK 190552Z 1908/1920 09010KT 9999 FEW020 SCT140 Q 1010 1012 1011 1009


Example: see airport list